Time;durP1;ratioP1;P1;durP2;ratioP2;P2;SDS_P1;SDS_P2;PMS_P1;PMS_P2;Temp;Humidity;BMP_temperature;BMP_pressure;BME280_temperature;BME280_humidity;BME280_pressure;Samples;Min_cycle;Max_cycle;Signal;HPM_P1;HPM_P2
2022/12/06 00:01:39;;;;;;;10.30;2.50;;;9.80;1.00;;;;;;5080472;28;20036;-62
2022/12/06 00:04:10;;;;;;;8.00;2.70;;;9.70;99.90;;;;;;5073659;28;20052;-61
2022/12/06 00:06:46;;;;;;;10.05;2.30;;;9.70;99.90;;;;;;5077239;28;20062;-62
2022/12/06 00:09:31;;;;;;;;;;;9.40;99.90;;;;;;5087177;28;20044;-62
2022/12/06 00:11:58;;;;;;;7.30;2.17;;;9.80;74.30;;;;;;5092478;28;19926;-62
2022/12/06 00:14:24;;;;;;;6.43;2.13;;;9.70;99.90;;;;;;5090477;28;20044;-61
2022/12/06 00:16:50;;;;;;;6.45;2.10;;;9.40;99.90;;;;;;5090072;28;20121;-62
2022/12/06 00:19:19;;;;;;;4.82;1.60;;;9.30;99.90;;;;;;5072001;28;20605;-62
2022/12/06 00:21:46;;;;;;;7.03;2.00;;;9.20;99.90;;;;;;5072207;28;20048;-62
2022/12/06 00:24:17;;;;;;;4.50;1.85;;;9.80;99.90;;;;;;5071718;28;20112;-62
2022/12/06 00:26:45;;;;;;;5.07;2.15;;;9.80;99.90;;;;;;5071144;28;20058;-62
2022/12/06 00:29:13;;;;;;;7.80;2.50;;;9.80;99.90;;;;;;5080246;28;20451;-61
2022/12/06 00:31:39;;;;;;;6.90;2.63;;;9.80;99.90;;;;;;5077076;28;20044;-62
2022/12/06 00:34:05;;;;;;;10.65;3.10;;;9.80;99.90;;;;;;5087097;28;20451;-62
2022/12/06 00:36:34;;;;;;;10.95;2.97;;;9.90;1.00;;;;;;5091480;28;20075;-62
2022/12/06 00:39:02;;;;;;;10.88;2.33;;;9.20;1.00;;;;;;5091088;28;20043;-62
2022/12/06 00:41:28;;;;;;;4.93;1.75;;;9.60;1.00;;;;;;5091984;28;20552;-62
2022/12/06 00:43:54;;;;;;;3.88;1.70;;;9.20;1.00;;;;;;5091267;28;20032;-62
2022/12/06 00:46:26;;;;;;;8.45;2.28;;;9.20;99.90;;;;;;5090712;28;20383;-62
2022/12/06 00:48:53;;;;;;;5.15;1.90;;;9.80;99.90;;;;;;5072095;28;20070;-62
2022/12/06 00:51:20;;;;;;;6.90;2.28;;;9.20;99.90;;;;;;5071924;28;20036;-62
2022/12/06 00:53:46;;;;;;;5.32;1.90;;;9.70;96.00;;;;;;5087193;28;20502;-62
2022/12/06 00:56:12;;;;;;;5.97;2.22;;;9.80;92.40;;;;;;5090957;28;20048;-62
2022/12/06 00:58:38;;;;;;;6.35;2.05;;;9.60;93.20;;;;;;5089758;28;20040;-62
2022/12/06 01:01:08;;;;;;;7.55;2.25;;;9.20;65.20;;;;;;5079478;28;20045;-62
2022/12/06 01:03:34;;;;;;;9.77;2.25;;;9.40;43.40;;;;;;5078956;28;20055;-62
2022/12/06 01:06:06;;;;;;;5.72;2.72;;;9.10;24.20;;;;;;5087227;28;20036;-62
2022/12/06 01:08:33;;;;;;;15.63;2.78;;;9.70;1.50;;;;;;5090474;28;20054;-62
2022/12/06 01:11:00;;;;;;;11.30;2.80;;;9.00;1.00;;;;;;5091076;28;20052;-61
2022/12/06 01:13:25;;;;;;;10.68;2.78;;;9.40;7.20;;;;;;5076006;28;20487;-62
2022/12/06 01:15:53;;;;;;;11.10;2.67;;;9.70;36.00;;;;;;5082970;28;20127;-62
2022/12/06 01:18:19;;;;;;;10.02;2.60;;;9.00;87.30;;;;;;5078000;28;20040;-62
2022/12/06 01:20:45;;;;;;;11.07;2.63;;;9.50;99.90;;;;;;5078658;28;20036;-62
2022/12/06 01:23:10;;;;;;;10.02;3.17;;;8.80;99.90;;;;;;5085596;28;20035;-61
2022/12/06 01:25:36;;;;;;;9.02;2.58;;;9.00;99.90;;;;;;5076238;28;20041;-62
2022/12/06 01:28:02;;;;;;;9.38;2.50;;;8.90;99.90;;;;;;5069961;28;20119;-62
2022/12/06 01:30:28;;;;;;;7.18;2.47;;;9.30;99.90;;;;;;5073371;28;20398;-62
2022/12/06 01:32:53;;;;;;;8.55;2.67;;;9.50;99.90;;;;;;5090850;28;20121;-62
2022/12/06 01:35:19;;;;;;;5.22;2.10;;;9.00;99.90;;;;;;5091265;28;20507;-62
2022/12/06 01:37:44;;;;;;;9.75;2.78;;;9.20;99.90;;;;;;5094248;28;20032;-62
2022/12/06 01:40:11;;;;;;;8.90;3.33;;;9.20;99.90;;;;;;5095265;28;20063;-62
2022/12/06 01:42:36;;;;;;;8.57;2.60;;;9.60;93.00;;;;;;5090365;28;20055;-62
2022/12/06 01:45:03;;;;;;;6.28;2.60;;;9.60;26.20;;;;;;5095222;28;20040;-62
2022/12/06 01:47:36;;;;;;;15.30;2.63;;;9.10;1.00;;;;;;5093268;28;20392;-62
2022/12/06 01:50:03;;;;;;;8.82;2.60;;;9.50;1.00;;;;;;5094026;28;20131;-61
2022/12/06 01:52:38;;;;;;;10.13;2.78;;;9.30;1.00;;;;;;5092692;28;20150;-62
2022/12/06 01:55:07;;;;;;;11.70;2.80;;;9.70;99.90;;;;;;5094971;28;20040;-62
2022/12/06 01:57:33;;;;;;;9.07;2.53;;;9.70;99.90;;;;;;5092168;28;20040;-62
2022/12/06 01:59:59;;;;;;;7.00;2.60;;;9.70;99.90;;;;;;5083211;28;20556;-62
2022/12/06 02:02:25;;;;;;;7.53;2.50;;;9.70;91.20;;;;;;5080280;28;20053;-62
2022/12/06 02:04:51;;;;;;;12.52;2.53;;;9.70;1.00;;;;;;5092231;28;20120;-61
2022/12/06 02:07:19;;;;;;;6.72;2.00;;;9.70;99.90;;;;;;5092710;28;20040;-62
2022/12/06 02:09:45;;;;;;;6.78;2.35;;;9.30;91.40;;;;;;5090197;28;20486;-62
2022/12/06 02:12:13;;;;;;;8.25;1.98;;;9.30;23.10;;;;;;5074956;28;20036;-62
2022/12/06 02:14:40;;;;;;;7.10;1.88;;;9.30;1.00;;;;;;5081375;28;20516;-62
2022/12/06 02:17:14;;;;;;;11.48;2.20;;;9.70;99.90;;;;;;5093794;28;20043;-61
2022/12/06 02:20:11;;;;;;;10.63;2.00;;;9.40;99.90;;;;;;5085954;28;20541;-61
2022/12/06 02:23:02;;;;;;;8.00;1.88;;;9.40;99.90;;;;;;5074258;28;20070;-61
2022/12/06 02:25:40;;;;;;;5.40;1.63;;;9.50;86.00;;;;;;5074399;28;20063;-62
2022/12/06 02:28:39;;;;;;;7.50;2.03;;;9.60;24.90;;;;;;5071723;28;20112;-62
2022/12/06 02:31:04;;;;;;;5.32;1.80;;;9.40;4.20;;;;;;5094085;28;20077;-62
2022/12/06 02:33:40;;;;;;;6.13;1.88;;;9.20;1.00;;;;;;5094334;28;20137;-62
2022/12/06 02:36:26;;;;;;;12.05;2.33;;;9.20;1.00;;;;;;5092311;28;20375;-62
2022/12/06 02:38:58;;;;;;;8.00;1.95;;;9.50;1.00;;;;;;5073963;28;20084;-62
2022/12/06 02:41:34;;;;;;;7.00;1.73;;;9.10;1.00;;;;;;5093988;28;20044;-61
2022/12/06 02:44:04;;;;;;;5.53;2.20;;;9.10;1.00;;;;;;5076276;28;20490;-62
2022/12/06 02:46:34;;;;;;;7.40;1.73;;;9.50;27.30;;;;;;5076870;28;20500;-61
2022/12/06 02:49:02;;;;;;;5.45;1.88;;;9.10;1.00;;;;;;5090740;28;20081;-62
2022/12/06 02:51:31;;;;;;;6.72;2.30;;;9.40;1.00;;;;;;5074611;28;20044;-62
2022/12/06 02:53:59;;;;;;;9.48;2.13;;;9.50;1.00;;;;;;5073728;28;20133;-62
2022/12/06 02:56:26;;;;;;;8.65;2.10;;;9.60;1.00;;;;;;5077137;28;20042;-62
2022/12/06 02:58:52;;;;;;;15.02;2.47;;;9.60;1.00;;;;;;5075652;28;20041;-62
2022/12/06 03:01:22;;;;;;;11.48;2.40;;;9.50;1.00;;;;;;5091937;28;20046;-62
2022/12/06 03:04:17;;;;;;;8.95;2.75;;;9.10;1.00;;;;;;5076475;28;20068;-62
2022/12/06 03:07:00;;;;;;;9.07;2.25;;;9.10;1.00;;;;;;5091089;28;20438;-62
2022/12/06 03:09:48;;;;;;;9.35;2.10;;;9.20;1.00;;;;;;5093829;28;20086;-62
2022/12/06 03:12:28;;;;;;;13.18;2.40;;;9.50;99.90;;;;;;5093355;28;20048;-62
2022/12/06 03:15:12;;;;;;;7.40;2.22;;;9.30;99.90;;;;;;5093266;28;20036;-61
2022/12/06 03:17:50;;;;;;;5.18;1.80;;;9.10;99.90;;;;;;5084926;28;20048;-62
2022/12/06 03:20:27;;;;;;;14.52;2.60;;;9.00;99.90;;;;;;5072866;28;20037;-62
2022/12/06 03:23:04;;;;;;;9.23;2.53;;;9.30;99.90;;;;;;5072990;28;20054;-62
2022/12/06 03:25:32;;;;;;;10.35;2.00;;;8.80;99.90;;;;;;5073741;28;20128;-62
2022/12/06 03:28:00;;;;;;;4.90;1.90;;;9.00;99.90;;;;;;5075236;28;20090;-61
2022/12/06 03:30:30;;;;;;;7.70;2.53;;;9.10;99.90;;;;;;5091100;28;20063;-61
2022/12/06 03:32:55;;;;;;;5.78;2.05;;;9.10;99.90;;;;;;5093252;28;20072;-62
2022/12/06 03:35:26;;;;;;;4.55;2.17;;;8.80;99.90;;;;;;5090736;28;20040;-62
2022/12/06 03:38:00;;;;;;;4.78;2.22;;;9.10;99.90;;;;;;5088458;28;20032;-62
2022/12/06 03:40:29;;;;;;;8.02;2.35;;;8.70;99.90;;;;;;5092833;28;20077;-62
2022/12/06 03:42:56;;;;;;;10.35;2.95;;;8.70;99.90;;;;;;5091905;28;20044;-62
2022/12/06 03:45:27;;;;;;;7.07;2.28;;;9.10;99.90;;;;;;5092962;28;20438;-62
2022/12/06 03:48:03;;;;;;;8.10;2.80;;;9.10;99.90;;;;;;5084292;28;20111;-61
2022/12/06 03:50:33;;;;;;;12.02;2.40;;;9.20;99.90;;;;;;5092665;28;20404;-61
2022/12/06 03:53:00;;;;;;;7.35;2.58;;;9.20;1.00;;;;;;5091893;28;20040;-62
2022/12/06 03:55:25;;;;;;;10.27;3.03;;;8.80;1.00;;;;;;5092597;28;20040;-61
2022/12/06 03:57:51;;;;;;;6.82;2.55;;;9.10;1.00;;;;;;5089339;28;20028;-62
2022/12/06 04:00:17;;;;;;;10.38;2.30;;;8.90;1.00;;;;;;5072334;28;20083;-61
2022/12/06 04:02:44;;;;;;;14.75;3.00;;;8.80;1.00;;;;;;5077548;28;20051;-61
2022/12/06 04:05:10;;;;;;;8.23;2.33;;;9.00;1.00;;;;;;5092394;28;20040;-62
2022/12/06 04:07:35;;;;;;;8.73;2.45;;;8.70;1.00;;;;;;5078474;28;20033;-62
2022/12/06 04:10:02;;;;;;;10.30;3.00;;;9.10;1.00;;;;;;5072383;28;20563;-63
2022/12/06 04:15:16;;;;;;;8.68;3.17;;;9.10;1.00;;;;;;5090885;28;20090;-62
2022/12/06 04:20:28;;;;;;;12.80;2.78;;;8.80;99.90;;;;;;5090936;28;20185;-61
2022/12/06 04:23:03;;;;;;;7.07;2.50;;;8.70;99.90;;;;;;5083278;28;20029;-62
2022/12/06 04:25:33;;;;;;;7.28;2.90;;;8.90;99.90;;;;;;5090044;28;20066;-61
2022/12/06 04:38:56;;;;;;;7.88;2.65;;;8.30;7.10;;;;;;5074695;28;20151;-61
2022/12/06 04:44:06;;;;;;;8.25;2.85;;;8.30;1.00;;;;;;5090394;28;20055;-61
2022/12/06 04:46:33;;;;;;;9.98;2.47;;;8.20;99.90;;;;;;5083247;28;20119;-62
2022/12/06 04:48:59;;;;;;;6.53;2.50;;;8.10;99.90;;;;;;5080008;28;20501;-62
2022/12/06 04:51:24;;;;;;;10.10;2.40;;;8.10;99.90;;;;;;5089231;28;20060;-61
2022/12/06 04:53:50;;;;;;;8.60;2.53;;;8.00;99.90;;;;;;5085758;28;20039;-62
2022/12/06 04:56:17;;;;;;;6.45;2.42;;;8.20;99.90;;;;;;5084755;28;20101;-62
2022/12/06 04:58:42;;;;;;;5.57;2.15;;;8.20;99.90;;;;;;5088906;28;20096;-62
2022/12/06 05:01:08;;;;;;;5.32;1.98;;;8.20;99.90;;;;;;5089754;28;20036;-61
2022/12/06 05:03:34;;;;;;;6.03;2.25;;;8.10;93.30;;;;;;5078665;28;20236;-62
2022/12/06 05:05:59;;;;;;;3.90;1.92;;;8.00;55.30;;;;;;5077494;28;20036;-62
2022/12/06 05:08:25;;;;;;;6.13;2.08;;;8.10;10.40;;;;;;5075751;28;20466;-62
2022/12/06 05:10:51;;;;;;;5.60;2.10;;;8.00;1.00;;;;;;5076057;28;20174;-61
2022/12/06 05:13:18;;;;;;;6.93;2.30;;;8.10;1.00;;;;;;5092651;28;20478;-62
2022/12/06 05:15:52;;;;;;;6.22;2.67;;;8.10;1.00;;;;;;5094706;28;20394;-62
2022/12/06 05:18:18;;;;;;;5.63;2.38;;;8.10;99.90;;;;;;5075951;28;20174;-62
2022/12/06 05:20:44;;;;;;;5.78;2.13;;;8.10;1.00;;;;;;5074072;28;20144;-62
2022/12/06 05:23:10;;;;;;;6.60;2.10;;;7.90;99.90;;;;;;5077769;28;20035;-62
2022/12/06 05:25:35;;;;;;;7.95;2.30;;;7.80;99.90;;;;;;5095334;28;20040;-62
2022/12/06 05:28:01;;;;;;;7.43;2.30;;;7.90;99.90;;;;;;5077475;28;20041;-62
2022/12/06 05:30:26;;;;;;;5.38;2.25;;;7.60;1.00;;;;;;5076533;28;20047;-62
2022/12/06 05:32:52;;;;;;;7.70;2.30;;;7.50;1.00;;;;;;5076800;28;20071;-61
2022/12/06 05:35:17;;;;;;;9.35;2.45;;;7.60;1.00;;;;;;5078686;28;20092;-61
2022/12/06 05:37:43;;;;;;;7.30;2.35;;;7.40;1.00;;;;;;5079635;28;20047;-61
2022/12/06 05:40:09;;;;;;;10.27;2.60;;;7.40;1.00;;;;;;5088752;28;20043;-61
2022/12/06 05:42:34;;;;;;;5.43;2.20;;;7.40;1.00;;;;;;5092666;28;20047;-61
2022/12/06 05:45:00;;;;;;;10.07;3.13;;;7.20;1.00;;;;;;5092058;28;20032;-62
2022/12/06 05:47:25;;;;;;;8.55;2.50;;;7.30;1.00;;;;;;5089442;28;20045;-62
2022/12/06 05:49:51;;;;;;;8.48;3.15;;;7.30;8.60;;;;;;5092655;28;20036;-61
2022/12/06 05:52:16;;;;;;;7.75;2.42;;;7.20;46.90;;;;;;5091805;28;20551;-61
2022/12/06 05:54:42;;;;;;;10.23;2.47;;;7.30;83.40;;;;;;5095007;28;20044;-61
2022/12/06 05:57:07;;;;;;;9.05;2.28;;;7.10;98.90;;;;;;5087076;28;20044;-61
2022/12/06 05:59:33;;;;;;;7.20;2.00;;;7.10;99.90;;;;;;5091531;28;20028;-61
2022/12/06 06:01:59;;;;;;;10.23;2.40;;;7.30;99.90;;;;;;5086816;28;20043;-62
2022/12/06 06:04:24;;;;;;;11.68;2.80;;;7.30;99.90;;;;;;5083877;28;20088;-63
2022/12/06 06:06:50;;;;;;;7.05;2.28;;;7.30;99.90;;;;;;5091748;28;20103;-64
2022/12/06 06:09:16;;;;;;;8.85;2.60;;;7.30;99.90;;;;;;5091703;28;20087;-64
2022/12/06 06:11:41;;;;;;;6.78;2.53;;;7.20;99.90;;;;;;5075598;28;20051;-64
2022/12/06 06:14:07;;;;;;;5.68;2.22;;;7.10;99.90;;;;;;5075108;28;20119;-64
2022/12/06 06:16:33;;;;;;;10.18;2.38;;;7.10;99.90;;;;;;5081159;28;20044;-64
2022/12/06 06:19:00;;;;;;;7.93;2.42;;;7.10;99.90;;;;;;5082512;28;20080;-63
2022/12/06 06:21:26;;;;;;;6.55;2.47;;;7.20;99.90;;;;;;5082078;28;20048;-64
2022/12/06 06:23:52;;;;;;;8.85;2.83;;;7.50;99.90;;;;;;5073830;28;20494;-64
2022/12/06 06:26:17;;;;;;;6.57;2.28;;;7.40;99.90;;;;;;5088454;28;20028;-64
2022/12/06 06:28:43;;;;;;;8.90;2.50;;;7.50;99.90;;;;;;5080711;28;20497;-64
2022/12/06 06:31:08;;;;;;;10.38;2.45;;;7.60;99.90;;;;;;5090900;28;20044;-64
2022/12/06 06:33:35;;;;;;;11.75;2.53;;;7.70;99.90;;;;;;5076147;28;20032;-64
2022/12/06 06:36:00;;;;;;;10.27;2.25;;;7.90;99.90;;;;;;5074441;28;20029;-64
2022/12/06 06:38:26;;;;;;;6.07;2.10;;;7.80;99.90;;;;;;5074088;28;20040;-64
2022/12/06 06:40:51;;;;;;;5.93;2.10;;;7.80;99.90;;;;;;5080434;28;20046;-64
2022/12/06 06:43:17;;;;;;;7.32;2.13;;;7.90;99.90;;;;;;5082176;28;20040;-64
2022/12/06 06:46:05;;;;;;;6.07;2.30;;;8.00;99.90;;;;;;5089843;28;20122;-64
2022/12/06 06:48:37;;;;;;;9.43;2.50;;;8.10;99.90;;;;;;5083256;28;20047;-64
2022/12/06 06:51:08;;;;;;;6.53;2.33;;;8.00;99.90;;;;;;5090739;28;20528;-64
2022/12/06 06:53:34;;;;;;;5.15;2.10;;;8.20;99.90;;;;;;5077707;28;20418;-64
2022/12/06 06:56:00;;;;;;;8.43;2.33;;;8.00;99.90;;;;;;5073953;28;20032;-64
2022/12/06 06:58:25;;;;;;;5.70;2.35;;;8.10;99.90;;;;;;5082574;28;20040;-64
2022/12/06 07:00:53;;;;;;;10.77;2.63;;;8.00;99.90;;;;;;5092973;28;20089;-64
2022/12/06 07:03:19;;;;;;;5.57;2.20;;;7.90;99.90;;;;;;5090269;28;20042;-64
2022/12/06 07:05:54;;;;;;;9.25;2.40;;;8.10;99.90;;;;;;5092968;28;20489;-64
2022/12/06 07:08:20;;;;;;;10.82;2.80;;;8.00;99.90;;;;;;5087002;28;20070;-64
2022/12/06 07:10:47;;;;;;;6.90;2.97;;;7.90;99.90;;;;;;5091422;28;20036;-64
2022/12/06 07:13:17;;;;;;;7.28;2.70;;;7.90;99.90;;;;;;5089117;28;20040;-64
2022/12/06 07:15:43;;;;;;;9.20;2.95;;;8.10;99.90;;;;;;5092077;28;20394;-64
2022/12/06 07:18:09;;;;;;;8.55;2.75;;;8.00;99.90;;;;;;5090478;28;20093;-64
2022/12/06 07:20:35;;;;;;;13.13;3.05;;;8.10;99.90;;;;;;5078272;28;20490;-65
2022/12/06 07:23:01;;;;;;;6.53;2.90;;;8.40;99.90;;;;;;5080165;28;20070;-64
2022/12/06 07:25:26;;;;;;;7.10;2.85;;;8.40;1.00;;;;;;5091611;28;20521;-64
2022/12/06 07:27:52;;;;;;;19.35;4.30;;;10.00;1.00;;;;;;5089218;28;20464;-64
2022/12/06 07:30:18;;;;;;;7.28;2.65;;;8.20;1.00;;;;;;5093569;28;20034;-64
2022/12/06 07:32:43;;;;;;;12.73;2.97;;;8.20;1.00;;;;;;5082582;28;20047;-65
2022/12/06 07:35:09;;;;;;;10.57;2.80;;;8.30;1.00;;;;;;5075655;28;20063;-65
2022/12/06 07:37:35;;;;;;;12.38;3.03;;;8.20;1.00;;;;;;5082383;28;20553;-65
2022/12/06 07:40:00;;;;;;;10.73;2.70;;;8.30;36.10;;;;;;5081889;28;20130;-65
2022/12/06 07:45:12;;;;;;;6.10;2.35;;;8.10;99.90;;;;;;5075349;28;20064;-65
2022/12/06 07:47:42;;;;;;;5.85;2.45;;;8.30;99.90;;;;;;5084855;28;20119;-64
2022/12/06 07:50:14;;;;;;;9.20;2.63;;;8.10;99.90;;;;;;5087674;28;20517;-65
2022/12/06 07:52:40;;;;;;;7.43;2.35;;;8.30;99.90;;;;;;5086894;28;20069;-64
2022/12/06 07:55:07;;;;;;;9.10;2.47;;;8.20;99.90;;;;;;5075961;28;20117;-65
2022/12/06 07:57:33;;;;;;;7.53;2.58;;;8.10;99.90;;;;;;5084061;28;20047;-65
2022/12/06 07:59:59;;;;;;;9.00;2.30;;;8.10;1.00;;;;;;5083408;28;20677;-65
2022/12/06 08:02:26;;;;;;;7.82;2.05;;;8.10;1.00;;;;;;5085097;28;20040;-64
2022/12/06 08:04:52;;;;;;;7.47;2.22;;;8.30;1.00;;;;;;5083140;28;20024;-65
2022/12/06 08:07:18;;;;;;;11.23;2.53;;;8.30;7.30;;;;;;5078397;28;20036;-65
2022/12/06 08:09:44;;;;;;;12.43;2.42;;;8.50;90.00;;;;;;5087518;28;20028;-65
2022/12/06 08:12:10;;;;;;;7.47;2.22;;;8.50;99.90;;;;;;5085202;28;20035;-65
2022/12/06 08:14:36;;;;;;;11.73;2.60;;;8.80;99.90;;;;;;5084078;28;20462;-65
2022/12/06 08:17:02;;;;;;;5.15;2.13;;;8.80;99.90;;;;;;5081744;28;20052;-65
2022/12/06 08:19:28;;;;;;;6.68;2.25;;;8.70;99.90;;;;;;5080073;28;20044;-65
2022/12/06 08:21:54;;;;;;;5.07;2.22;;;8.80;99.90;;;;;;5080115;28;20039;-65
2022/12/06 08:24:20;;;;;;;9.15;2.60;;;8.50;1.00;;;;;;5081810;28;20032;-65
2022/12/06 08:26:46;;;;;;;6.22;2.50;;;8.60;1.00;;;;;;5082148;28;20032;-65
2022/12/06 08:29:11;;;;;;;5.07;2.03;;;8.40;1.00;;;;;;5083812;28;20156;-65
2022/12/06 08:31:38;;;;;;;6.32;1.63;;;8.30;1.00;;;;;;5082856;28;20040;-65
2022/12/06 08:34:04;;;;;;;10.05;1.98;;;8.50;1.00;;;;;;5080818;28;20044;-66
2022/12/06 08:36:30;;;;;;;6.32;2.03;;;8.30;31.40;;;;;;5079710;28;20036;-65
2022/12/06 08:38:58;;;;;;;5.95;2.30;;;8.50;54.60;;;;;;5087526;28;20101;-65
2022/12/06 08:44:12;;;;;;;5.15;2.58;;;8.10;99.90;;;;;;5081027;28;20040;-65
2022/12/06 08:46:39;;;;;;;6.47;3.05;;;8.20;99.90;;;;;;5087286;28;20196;-65
2022/12/06 08:49:05;;;;;;;9.73;3.75;;;8.40;99.90;;;;;;5080975;28;20032;-65
2022/12/06 08:51:32;;;;;;;10.95;4.63;;;8.30;99.90;;;;;;5081649;28;20081;-65
2022/12/06 08:53:58;;;;;;;13.57;4.30;;;8.20;99.90;;;;;;5079328;28;20048;-65
2022/12/06 08:56:24;;;;;;;18.13;4.00;;;8.20;99.90;;;;;;5077405;28;20104;-65
2022/12/06 08:58:52;;;;;;;8.85;3.92;;;8.00;1.00;;;;;;5080343;28;20032;-66
2022/12/06 09:01:20;;;;;;;12.80;3.90;;;8.20;1.00;;;;;;5086717;28;20047;-65
2022/12/06 09:03:46;;;;;;;9.30;4.07;;;8.30;1.00;;;;;;5087611;28;20032;-65
2022/12/06 09:06:12;;;;;;;12.32;4.60;;;8.20;74.80;;;;;;5086434;28;20032;-65
2022/12/06 09:08:38;;;;;;;7.82;3.80;;;8.70;99.90;;;;;;5072249;28;20036;-65
2022/12/06 09:11:05;;;;;;;6.43;3.05;;;8.60;99.90;;;;;;5074333;28;20043;-65
2022/12/06 09:13:30;;;;;;;10.20;3.33;;;8.40;1.00;;;;;;5082292;28;20490;-65
2022/12/06 09:15:56;;;;;;;7.00;2.65;;;8.90;1.00;;;;;;5087808;28;20129;-65
2022/12/06 09:18:22;;;;;;;5.03;2.47;;;8.70;84.30;;;;;;5084812;28;20033;-65
2022/12/06 09:20:47;;;;;;;8.40;2.40;;;8.50;99.90;;;;;;5084278;28;20043;-65
2022/12/06 09:23:13;;;;;;;5.25;2.20;;;9.10;1.00;;;;;;5083913;28;20069;-65
2022/12/06 09:25:42;;;;;;;5.63;2.10;;;8.70;1.00;;;;;;5080432;28;20041;-66
2022/12/06 09:28:09;;;;;;;9.52;2.75;;;8.60;58.20;;;;;;5082813;28;20132;-66
2022/12/06 09:30:34;;;;;;;9.05;2.58;;;8.70;82.70;;;;;;5085191;28;20060;-65
2022/12/06 09:33:00;;;;;;;6.90;2.97;;;8.70;96.60;;;;;;5080600;28;20167;-66
2022/12/06 09:35:26;;;;;;;9.50;3.08;;;9.10;65.20;;;;;;5077809;28;20033;-65
2022/12/06 09:37:51;;;;;;;4.80;2.83;;;8.50;32.00;;;;;;5078624;28;20037;-65
2022/12/06 09:40:33;;;;;;;7.45;3.05;;;9.30;1.00;;;;;;5087436;28;20052;-66
2022/12/06 09:43:28;;;;;;;15.43;2.58;;;9.00;99.90;;;;;;5077163;28;20119;-66
2022/12/06 09:46:14;;;;;;;8.48;2.40;;;9.80;99.90;;;;;;5080604;28;20032;-66
2022/12/06 09:49:09;;;;;;;8.27;2.00;;;9.90;99.90;;;;;;5082554;28;20116;-63
2022/12/06 09:51:53;;;;;;;12.60;2.05;;;10.00;99.90;;;;;;5077626;28;20891;-63
2022/12/06 09:54:53;;;;;;;9.95;1.90;;;9.60;1.00;;;;;;5079050;28;20075;-63
2022/12/06 09:57:36;;;;;;;8.45;1.73;;;9.80;1.00;;;;;;5082312;28;20044;-63
2022/12/06 10:00:01;;;;;;;7.70;2.15;;;10.20;1.00;;;;;;5082313;28;20101;-63
2022/12/06 10:02:49;;;;;;;4.30;1.67;;;10.10;1.00;;;;;;5085656;28;20043;-64
2022/12/06 10:05:38;;;;;;;3.15;1.75;;;10.10;1.00;;;;;;5087174;28;20044;-66
2022/12/06 10:08:26;;;;;;;10.40;1.65;;;10.00;1.00;;;;;;5084680;28;20039;-67
2022/12/06 10:11:19;;;;;;;7.97;1.50;;;10.30;1.00;;;;;;5082039;28;20043;-67
2022/12/06 10:14:10;;;;;;;8.95;1.70;;;10.00;1.00;;;;;;5080964;28;20071;-66
2022/12/06 10:16:59;;;;;;;4.57;1.30;;;10.10;1.00;;;;;;5085424;28;20067;-66
2022/12/06 10:19:44;;;;;;;4.03;1.45;;;10.50;1.00;;;;;;5092569;28;20048;-67
2022/12/06 10:22:45;;;;;;;7.25;2.00;;;10.40;99.90;;;;;;5093114;28;20040;-67
2022/12/06 10:25:38;;;;;;;7.72;1.48;;;10.40;99.90;;;;;;5091914;28;20032;-67
2022/12/06 10:28:12;;;;;;;7.60;1.40;;;10.20;99.90;;;;;;5091580;28;20074;-64
2022/12/06 10:30:49;;;;;;;7.60;1.15;;;10.50;99.90;;;;;;5094409;28;20047;-64
2022/12/06 10:33:49;;;;;;;6.40;1.10;;;10.30;99.90;;;;;;5082902;28;20039;-64
2022/12/06 10:36:25;;;;;;;7.00;1.27;;;10.50;99.90;;;;;;5087488;28;20082;-64
2022/12/06 10:38:58;;;;;;;4.72;1.13;;;10.10;99.90;;;;;;5079186;28;20466;-66
2022/12/06 10:41:32;;;;;;;5.30;1.20;;;10.60;99.90;;;;;;5088803;28;20101;-66
2022/12/06 10:44:26;;;;;;;8.23;1.70;;;10.70;99.90;;;;;;5091463;28;20048;-66
2022/12/06 10:47:03;;;;;;;5.82;1.60;;;10.60;99.90;;;;;;5083729;28;20048;-66
2022/12/06 10:49:56;;;;;;;3.75;1.23;;;10.50;99.90;;;;;;5088974;28;20105;-66
2022/12/06 10:52:42;;;;;;;4.05;1.20;;;10.70;99.90;;;;;;5083802;28;20430;-66
2022/12/06 10:55:10;;;;;;;6.57;1.70;;;10.40;99.90;;;;;;5082596;28;20047;-66
2022/12/06 10:57:53;;;;;;;4.90;1.25;;;10.70;1.00;;;;;;5068493;28;20044;-65
2022/12/06 11:00:24;;;;;;;2.40;1.33;;;10.40;1.00;;;;;;5082091;28;20055;-65
2022/12/06 11:02:59;;;;;;;6.50;1.60;;;10.60;1.00;;;;;;5086559;28;20032;-65
2022/12/06 11:05:34;;;;;;;3.70;1.33;;;10.40;1.00;;;;;;5080689;28;20177;-65
2022/12/06 11:08:28;;;;;;;3.40;1.17;;;10.70;1.00;;;;;;5087631;28;20513;-65
2022/12/06 11:10:56;;;;;;;7.53;1.42;;;10.40;28.70;;;;;;5083516;28;20470;-64
2022/12/06 11:13:33;;;;;;;2.47;1.25;;;10.70;89.10;;;;;;5085915;28;20048;-65
2022/12/06 11:16:09;;;;;;;10.57;1.33;;;10.80;99.90;;;;;;5087308;28;20056;-65
2022/12/06 11:18:35;;;;;;;10.10;1.60;;;10.50;72.80;;;;;;5083230;28;20041;-64
2022/12/06 11:21:27;;;;;;;8.73;1.60;;;10.90;99.90;;;;;;5083343;28;20655;-65
2022/12/06 11:24:08;;;;;;;8.25;1.40;;;10.90;99.90;;;;;;5091004;28;20370;-65
2022/12/06 11:27:00;;;;;;;5.40;1.20;;;10.50;99.90;;;;;;5067381;28;20067;-65
2022/12/06 11:29:27;;;;;;;5.63;1.30;;;11.00;99.90;;;;;;5080988;28;20064;-65
2022/12/06 11:31:56;;;;;;;4.38;1.48;;;10.70;99.90;;;;;;5082073;28;20049;-64
2022/12/06 11:34:27;;;;;;;6.88;1.50;;;10.50;99.90;;;;;;5072821;28;20040;-65
2022/12/06 11:36:54;;;;;;;2.58;1.40;;;11.00;99.90;;;;;;5089010;28;20047;-65
2022/12/06 11:39:20;;;;;;;3.45;1.10;;;10.90;99.90;;;;;;5090205;28;20043;-65
2022/12/06 11:41:51;;;;;;;6.95;1.45;;;10.90;99.90;;;;;;5079048;28;20040;-65
2022/12/06 11:44:24;;;;;;;12.63;1.60;;;10.50;99.90;;;;;;5085031;28;20406;-65
2022/12/06 11:46:59;;;;;;;6.95;1.17;;;10.60;99.90;;;;;;5075774;28;20069;-62
2022/12/06 11:49:33;;;;;;;5.95;1.45;;;10.50;1.00;;;;;;5074057;28;20028;-62
2022/12/06 11:52:06;;;;;;;6.07;1.10;;;11.10;1.00;;;;;;5089298;28;20044;-62
2022/12/06 11:55:00;;;;;;;5.18;1.20;;;11.30;99.90;;;;;;5081079;28;20040;-62
2022/12/06 11:57:33;;;;;;;3.95;1.08;;;10.90;99.90;;;;;;5077552;28;20548;-62
2022/12/06 12:00:20;;;;;;;5.78;1.15;;;11.00;1.00;;;;;;5080284;28;20385;-62
2022/12/06 12:02:48;;;;;;;8.98;1.30;;;11.00;1.00;;;;;;5072794;28;20547;-62
2022/12/06 12:05:24;;;;;;;3.78;1.20;;;11.30;99.90;;;;;;5083746;28;20044;-62
2022/12/06 12:07:55;;;;;;;;;;;10.90;99.90;;;;;;5078767;28;20508;-62
2022/12/06 12:10:46;;;;;;;2.75;1.10;;;10.80;6.40;;;;;;5081011;28;20388;-62
2022/12/06 12:16:09;;;;;;;5.22;1.40;;;11.20;1.00;;;;;;5078314;28;20079;-62
2022/12/06 12:18:38;;;;;;;5.15;1.10;;;10.90;1.00;;;;;;5088411;28;20036;-62
2022/12/06 12:21:05;;;;;;;7.45;1.23;;;10.80;1.00;;;;;;5083779;28;20461;-63
2022/12/06 12:23:41;;;;;;;5.90;1.10;;;10.80;1.00;;;;;;5087693;28;20025;-62
2022/12/06 12:26:06;;;;;;;7.38;1.83;;;10.90;1.00;;;;;;5082271;28;20044;-62
2022/12/06 12:28:34;;;;;;;4.00;1.10;;;11.00;99.90;;;;;;5083330;28;20032;-62
2022/12/06 12:31:18;;;;;;;4.88;1.25;;;11.60;99.90;;;;;;5089289;28;20036;-62
2022/12/06 12:33:44;;;;;;;7.00;1.00;;;11.70;99.90;;;;;;5086198;28;20044;-62
2022/12/06 12:36:19;;;;;;;2.38;1.10;;;11.40;99.90;;;;;;5083414;28;20093;-61
2022/12/06 12:38:59;;;;;;;4.68;1.10;;;11.30;99.90;;;;;;5077593;28;20032;-61
2022/12/06 12:41:32;;;;;;;3.22;1.30;;;11.50;99.90;;;;;;5081787;28;20040;-61
2022/12/06 12:44:04;;;;;;;4.90;1.48;;;11.20;1.00;;;;;;5091692;28;20150;-62
2022/12/06 12:46:34;;;;;;;5.95;1.25;;;11.70;1.00;;;;;;5085204;28;20558;-61
2022/12/06 12:49:20;;;;;;;11.07;1.50;;;11.00;1.00;;;;;;5075655;28;20525;-61
2022/12/06 12:51:46;;;;;;;7.33;1.33;;;11.30;1.00;;;;;;5090464;28;20040;-61
2022/12/06 12:54:35;;;;;;;5.60;1.15;;;11.00;99.90;;;;;;5092064;28;20417;-61
2022/12/06 12:57:05;;;;;;;8.30;1.30;;;10.70;99.90;;;;;;5086185;28;20134;-61
2022/12/06 12:59:39;;;;;;;5.57;1.17;;;11.20;99.90;;;;;;5084029;28;20080;-61
2022/12/06 13:02:27;;;;;;;5.90;1.40;;;11.10;1.00;;;;;;5089522;28;20071;-61
2022/12/06 13:05:00;;;;;;;5.75;1.40;;;11.00;1.00;;;;;;5085203;28;20035;-61
2022/12/06 13:07:38;;;;;;;4.82;1.40;;;11.10;33.40;;;;;;5081466;28;20036;-62
2022/12/06 13:10:37;;;;;;;11.93;1.60;;;10.70;83.70;;;;;;5080827;28;20028;-61
2022/12/06 13:13:19;;;;;;;9.55;1.88;;;11.00;99.90;;;;;;5078568;28;20118;-61
2022/12/06 13:15:48;;;;;;;3.30;1.50;;;10.70;99.90;;;;;;5084419;28;20044;-61
2022/12/06 13:19:05;;;;;;;6.57;1.38;;;11.20;99.90;;;;;;5074482;28;20123;-61
2022/12/06 13:21:37;;;;;;;12.33;1.77;;;11.20;99.90;;;;;;5062192;28;20051;-61
2022/12/06 13:24:09;;;;;;;4.43;1.40;;;11.10;1.00;;;;;;5086676;28;20040;-61
2022/12/06 13:27:11;;;;;;;6.07;1.30;;;10.60;1.00;;;;;;5089275;28;20040;-61
2022/12/06 13:29:39;;;;;;;4.80;2.22;;;11.20;11.80;;;;;;5064566;28;20040;-61
2022/12/06 13:32:21;;;;;;;5.53;1.58;;;10.90;58.90;;;;;;5082579;28;20028;-61
2022/12/06 13:34:54;;;;;;;6.07;1.58;;;11.10;99.90;;;;;;5081021;28;20115;-61
2022/12/06 13:37:43;;;;;;;6.70;1.88;;;10.60;99.90;;;;;;5089784;28;20067;-61
2022/12/06 13:40:30;;;;;;;7.80;1.45;;;11.30;99.90;;;;;;5082616;28;20042;-61
2022/12/06 13:42:56;;;;;;;2.35;1.17;;;11.00;1.00;;;;;;5088330;28;20571;-62
2022/12/06 13:46:05;;;;;;;4.60;1.27;;;11.40;1.00;;;;;;5089204;28;20028;-61